Thaani — HBY4477 — position and weather

sailwx.info

Track history (hours):
 
Tides and Currents Weather Stations Pressure Air Temp Water Temp Dewpoint Dewpoint Depression Visibility Wind Speed Wind Dir Waves Ship Positions

Thaani

Last reported at 2015-Apr-15 11:13 UTC. Time now 2015-May-30 02:28 UTC.
Position N 47°20' W 002°40'.
Warning: this ship's position is 44 days out of date.

Length 14 m.

Type: Pleasure craft. MMSI: 269102970.

Date/timePositionNaut miles runAvg speedWind from/ knotsBaromVisibWave heightAir tempDewpointWater temp
2015-Apr-15 11:13N 47°20' W 002°40'4 6.2
2015-Apr-15 10:33N 47°22' W 002°46'6 6.1
2015-Apr-15 09:33N 47°25' W 002°53'6 5.7
2015-Apr-15 08:33N 47°27' W 003°01'4 4.0
2015-Apr-15 07:31N 47°29' W 003°06'2 0.1
2015-Apr-14 11:33N 47°28' W 003°04'3 2.9
2015-Apr-14 10:24N 47°28' W 003°09'5 6.2
2015-Apr-14 09:32N 47°32' W 003°14'6 5.8
2015-Apr-14 08:33N 47°36' W 003°20'5 5.2
2015-Apr-14 07:32N 47°39' W 003°27'0 0.0
2015-Apr-13 12:21N 47°39' W 003°27'0 0.1
2015-Apr-13 11:33N 47°39' W 003°27'6 6.1
2015-Apr-13 10:33N 47°41' W 003°35'20 0.9
2015-Apr-12 11:34N 47°48' W 004°03'24 1.1
2015-Apr-11 13:33N 47°60' W 004°35'6 6.2
2015-Apr-11 12:33N 48°02' W 004°43'6 6.0
2015-Apr-11 11:33N 48°07' W 004°44'7 7.4
2015-Apr-11 10:33N 48°15' W 004°40'7 6.9
2015-Apr-11 09:33N 48°20' W 004°34'4 3.9
2015-Apr-11 08:28N 48°23' W 004°29'  
2015-Apr-08 14:31N 48°23' W 004°29'0 0.1
2015-Apr-08 13:33N 48°23' W 004°29'5 5.0
2015-Apr-08 12:33N 48°20' W 004°36'6 5.8
2015-Apr-08 11:33N 48°19' W 004°44'6 5.9
2015-Apr-08 10:33N 48°24' W 004°49'7 7.5
2015-Apr-08 09:33N 48°32' W 004°49'80 1.7
2015-Apr-06 09:10N 48°49' W 002°51'  
Track history (hours):
 
Tides and Currents Weather Stations Pressure Air Temp Water Temp Dewpoint Dewpoint Depression Visibility Wind Speed Wind Dir Waves Ship Positions

Thaani

Last reported at 2015-Apr-15 11:13 UTC. Time now 2015-May-30 02:28 UTC.
Position N 47°20' W 002°40'.
Warning: this ship's position is 44 days out of date.

Length 14 m.

Type: Pleasure craft. MMSI: 269102970.

Date/timePositionNaut miles runAvg speedWind from/ knotsBaromVisibWave heightAir tempDewpointWater temp
2015-Apr-15 11:13N 47°20' W 002°40'4 6.2
2015-Apr-15 10:33N 47°22' W 002°46'6 6.1
2015-Apr-15 09:33N 47°25' W 002°53'6 5.7
2015-Apr-15 08:33N 47°27' W 003°01'4 4.0
2015-Apr-15 07:31N 47°29' W 003°06'2 0.1
2015-Apr-14 11:33N 47°28' W 003°04'3 2.9
2015-Apr-14 10:24N 47°28' W 003°09'5 6.2
2015-Apr-14 09:32N 47°32' W 003°14'6 5.8
2015-Apr-14 08:33N 47°36' W 003°20'5 5.2
2015-Apr-14 07:32N 47°39' W 003°27'0 0.0
2015-Apr-13 12:21N 47°39' W 003°27'0 0.1
2015-Apr-13 11:33N 47°39' W 003°27'6 6.1
2015-Apr-13 10:33N 47°41' W 003°35'20 0.9
2015-Apr-12 11:34N 47°48' W 004°03'24 1.1
2015-Apr-11 13:33N 47°60' W 004°35'6 6.2
2015-Apr-11 12:33N 48°02' W 004°43'6 6.0
2015-Apr-11 11:33N 48°07' W 004°44'7 7.4
2015-Apr-11 10:33N 48°15' W 004°40'7 6.9
2015-Apr-11 09:33N 48°20' W 004°34'4 3.9
2015-Apr-11 08:28N 48°23' W 004°29'  
2015-Apr-08 14:31N 48°23' W 004°29'0 0.1
2015-Apr-08 13:33N 48°23' W 004°29'5 5.0
2015-Apr-08 12:33N 48°20' W 004°36'6 5.8
2015-Apr-08 11:33N 48°19' W 004°44'6 5.9
2015-Apr-08 10:33N 48°24' W 004°49'7 7.5
2015-Apr-08 09:33N 48°32' W 004°49'80 1.7
2015-Apr-06 09:10N 48°49' W 002°51'  

Dump ship's entire track history